sensor_id;sensor_type;location;lat;lon;timestamp;P1;durP1;ratioP1;P2;durP2;ratioP2
29280;SDS011;25048;49.590;11.026;2023-04-01T00:00:50;738.40;;;381.87;;
29280;SDS011;25048;49.590;11.026;2023-04-01T00:03:20;733.77;;;370.07;;
29280;SDS011;25048;49.590;11.026;2023-04-01T00:05:48;733.00;;;365.07;;
29280;SDS011;25048;49.590;11.026;2023-04-01T00:08:16;736.97;;;377.07;;
29280;SDS011;25048;49.590;11.026;2023-04-01T00:10:44;737.93;;;381.93;;
29280;SDS011;25048;49.590;11.026;2023-04-01T00:13:12;738.13;;;384.23;;
29280;SDS011;25048;49.590;11.026;2023-04-01T00:15:40;738.57;;;388.83;;
29280;SDS011;25048;49.590;11.026;2023-04-01T00:18:08;741.03;;;383.67;;
29280;SDS011;25048;49.590;11.026;2023-04-01T00:20:36;740.40;;;381.70;;
29280;SDS011;25048;49.590;11.026;2023-04-01T00:23:05;740.83;;;391.33;;
29280;SDS011;25048;49.590;11.026;2023-04-01T00:25:32;743.83;;;389.87;;
29280;SDS011;25048;49.590;11.026;2023-04-01T00:28:00;736.77;;;379.73;;
29280;SDS011;25048;49.590;11.026;2023-04-01T00:30:27;741.80;;;393.23;;
29280;SDS011;25048;49.590;11.026;2023-04-01T00:32:55;744.97;;;403.67;;
29280;SDS011;25048;49.590;11.026;2023-04-01T00:35:22;741.43;;;398.17;;
29280;SDS011;25048;49.590;11.026;2023-04-01T00:37:50;743.87;;;396.17;;
29280;SDS011;25048;49.590;11.026;2023-04-01T00:40:23;745.67;;;403.40;;
29280;SDS011;25048;49.590;11.026;2023-04-01T00:42:51;745.77;;;403.33;;
29280;SDS011;25048;49.590;11.026;2023-04-01T00:45:33;746.60;;;405.90;;
29280;SDS011;25048;49.590;11.026;2023-04-01T00:48:06;741.10;;;405.60;;
29280;SDS011;25048;49.590;11.026;2023-04-01T00:50:38;741.37;;;404.33;;
29280;SDS011;25048;49.590;11.026;2023-04-01T00:53:07;744.13;;;410.70;;
29280;SDS011;25048;49.590;11.026;2023-04-01T00:55:36;750.27;;;415.80;;
29280;SDS011;25048;49.590;11.026;2023-04-01T00:58:07;752.40;;;422.93;;
29280;SDS011;25048;49.590;11.026;2023-04-01T01:00:37;753.87;;;426.37;;
29280;SDS011;25048;49.590;11.026;2023-04-01T01:03:05;746.33;;;409.97;;
29280;SDS011;25048;49.590;11.026;2023-04-01T01:05:38;757.00;;;434.33;;
29280;SDS011;25048;49.590;11.026;2023-04-01T01:08:15;751.23;;;428.33;;
29280;SDS011;25048;49.590;11.026;2023-04-01T01:10:46;745.40;;;411.27;;
29280;SDS011;25048;49.590;11.026;2023-04-01T01:13:25;743.77;;;411.77;;
29280;SDS011;25048;49.590;11.026;2023-04-01T01:16:14;751.33;;;425.63;;
29280;SDS011;25048;49.590;11.026;2023-04-01T01:18:55;751.03;;;427.47;;
29280;SDS011;25048;49.590;11.026;2023-04-01T01:21:28;755.27;;;439.30;;
29280;SDS011;25048;49.590;11.026;2023-04-01T01:24:13;747.87;;;418.23;;
29280;SDS011;25048;49.590;11.026;2023-04-01T01:26:42;754.20;;;433.03;;
29280;SDS011;25048;49.590;11.026;2023-04-01T01:32:19;751.03;;;418.67;;
29280;SDS011;25048;49.590;11.026;2023-04-01T01:35:10;751.70;;;432.47;;
29280;SDS011;25048;49.590;11.026;2023-04-01T01:37:41;750.77;;;432.40;;
29280;SDS011;25048;49.590;11.026;2023-04-01T01:40:11;751.90;;;433.37;;
29280;SDS011;25048;49.590;11.026;2023-04-01T01:42:43;744.27;;;420.70;;
29280;SDS011;25048;49.590;11.026;2023-04-01T01:45:14;754.53;;;438.17;;
29280;SDS011;25048;49.590;11.026;2023-04-01T01:47:45;758.87;;;440.00;;
29280;SDS011;25048;49.590;11.026;2023-04-01T01:50:14;753.87;;;438.50;;
29280;SDS011;25048;49.590;11.026;2023-04-01T01:52:43;752.53;;;434.00;;
29280;SDS011;25048;49.590;11.026;2023-04-01T01:58:16;750.97;;;433.73;;
29280;SDS011;25048;49.590;11.026;2023-04-01T02:00:54;746.37;;;426.43;;
29280;SDS011;25048;49.590;11.026;2023-04-01T02:03:30;748.93;;;428.60;;
29280;SDS011;25048;49.590;11.026;2023-04-01T02:06:01;750.43;;;431.57;;
29280;SDS011;25048;49.590;11.026;2023-04-01T02:08:39;747.73;;;426.90;;
29280;SDS011;25048;49.590;11.026;2023-04-01T02:11:08;747.10;;;425.17;;
29280;SDS011;25048;49.590;11.026;2023-04-01T02:13:46;743.87;;;413.57;;
29280;SDS011;25048;49.590;11.026;2023-04-01T02:16:27;747.07;;;425.10;;
29280;SDS011;25048;49.590;11.026;2023-04-01T02:18:52;750.40;;;430.83;;
29280;SDS011;25048;49.590;11.026;2023-04-01T02:21:22;745.17;;;425.40;;
29280;SDS011;25048;49.590;11.026;2023-04-01T02:23:53;747.77;;;427.53;;
29280;SDS011;25048;49.590;11.026;2023-04-01T02:26:23;748.13;;;428.10;;
29280;SDS011;25048;49.590;11.026;2023-04-01T02:28:52;751.67;;;431.93;;
29280;SDS011;25048;49.590;11.026;2023-04-01T02:31:21;753.60;;;437.63;;
29280;SDS011;25048;49.590;11.026;2023-04-01T02:33:49;746.63;;;417.77;;
29280;SDS011;25048;49.590;11.026;2023-04-01T02:36:17;752.70;;;437.03;;
29280;SDS011;25048;49.590;11.026;2023-04-01T02:38:45;753.13;;;432.37;;
29280;SDS011;25048;49.590;11.026;2023-04-01T02:41:15;746.87;;;432.33;;
29280;SDS011;25048;49.590;11.026;2023-04-01T02:43:42;753.10;;;434.13;;
29280;SDS011;25048;49.590;11.026;2023-04-01T02:46:10;749.77;;;434.77;;
29280;SDS011;25048;49.590;11.026;2023-04-01T02:48:37;753.70;;;435.97;;
29280;SDS011;25048;49.590;11.026;2023-04-01T02:51:05;746.33;;;426.83;;
29280;SDS011;25048;49.590;11.026;2023-04-01T02:53:32;745.03;;;421.37;;
29280;SDS011;25048;49.590;11.026;2023-04-01T02:56:00;744.20;;;422.80;;
29280;SDS011;25048;49.590;11.026;2023-04-01T02:58:27;749.73;;;433.73;;
29280;SDS011;25048;49.590;11.026;2023-04-01T03:00:55;744.30;;;419.77;;
29280;SDS011;25048;49.590;11.026;2023-04-01T03:03:22;749.93;;;434.50;;
29280;SDS011;25048;49.590;11.026;2023-04-01T03:05:50;749.57;;;435.83;;
29280;SDS011;25048;49.590;11.026;2023-04-01T03:08:19;749.07;;;435.47;;
29280;SDS011;25048;49.590;11.026;2023-04-01T03:10:46;746.17;;;434.93;;
29280;SDS011;25048;49.590;11.026;2023-04-01T03:13:14;747.93;;;427.10;;
29280;SDS011;25048;49.590;11.026;2023-04-01T03:15:41;754.10;;;438.07;;
29280;SDS011;25048;49.590;11.026;2023-04-01T03:18:09;745.83;;;423.63;;
29280;SDS011;25048;49.590;11.026;2023-04-01T03:20:36;743.83;;;426.90;;
29280;SDS011;25048;49.590;11.026;2023-04-01T03:23:04;751.23;;;437.97;;
29280;SDS011;25048;49.590;11.026;2023-04-01T03:25:31;754.90;;;440.93;;
29280;SDS011;25048;49.590;11.026;2023-04-01T03:27:59;749.90;;;436.33;;
29280;SDS011;25048;49.590;11.026;2023-04-01T03:30:26;744.33;;;421.10;;
29280;SDS011;25048;49.590;11.026;2023-04-01T03:32:56;744.87;;;417.60;;
29280;SDS011;25048;49.590;11.026;2023-04-01T03:35:25;742.47;;;414.90;;
29280;SDS011;25048;49.590;11.026;2023-04-01T03:37:53;751.87;;;438.17;;
29280;SDS011;25048;49.590;11.026;2023-04-01T03:40:21;751.07;;;431.07;;
29280;SDS011;25048;49.590;11.026;2023-04-01T03:42:49;741.80;;;413.10;;
29280;SDS011;25048;49.590;11.026;2023-04-01T03:45:17;742.67;;;423.93;;
29280;SDS011;25048;49.590;11.026;2023-04-01T03:47:45;741.90;;;419.20;;
29280;SDS011;25048;49.590;11.026;2023-04-01T03:50:12;748.80;;;423.80;;
29280;SDS011;25048;49.590;11.026;2023-04-01T03:52:40;751.50;;;428.07;;
29280;SDS011;25048;49.590;11.026;2023-04-01T03:55:07;745.53;;;422.43;;
29280;SDS011;25048;49.590;11.026;2023-04-01T03:57:35;743.13;;;413.77;;
29280;SDS011;25048;49.590;11.026;2023-04-01T04:00:03;746.23;;;425.10;;
29280;SDS011;25048;49.590;11.026;2023-04-01T04:02:30;745.17;;;425.17;;
29280;SDS011;25048;49.590;11.026;2023-04-01T04:04:58;748.67;;;430.57;;
29280;SDS011;25048;49.590;11.026;2023-04-01T04:07:25;742.87;;;413.63;;
29280;SDS011;25048;49.590;11.026;2023-04-01T04:09:53;741.43;;;415.43;;
29280;SDS011;25048;49.590;11.026;2023-04-01T04:12:20;739.77;;;416.80;;
29280;SDS011;25048;49.590;11.026;2023-04-01T04:14:48;744.60;;;423.07;;
29280;SDS011;25048;49.590;11.026;2023-04-01T04:17:15;746.60;;;424.53;;
29280;SDS011;25048;49.590;11.026;2023-04-01T04:19:43;745.53;;;424.03;;
29280;SDS011;25048;49.590;11.026;2023-04-01T04:22:11;749.20;;;432.40;;
29280;SDS011;25048;49.590;11.026;2023-04-01T04:24:38;749.20;;;422.37;;
29280;SDS011;25048;49.590;11.026;2023-04-01T04:27:06;746.43;;;426.20;;
29280;SDS011;25048;49.590;11.026;2023-04-01T04:29:33;743.13;;;423.07;;
29280;SDS011;25048;49.590;11.026;2023-04-01T04:32:01;747.93;;;424.63;;
29280;SDS011;25048;49.590;11.026;2023-04-01T04:34:28;739.60;;;406.30;;
29280;SDS011;25048;49.590;11.026;2023-04-01T04:36:56;743.30;;;420.50;;
29280;SDS011;25048;49.590;11.026;2023-04-01T04:39:23;739.00;;;407.63;;
29280;SDS011;25048;49.590;11.026;2023-04-01T04:41:51;743.20;;;422.83;;
29280;SDS011;25048;49.590;11.026;2023-04-01T04:44:18;741.00;;;412.37;;
29280;SDS011;25048;49.590;11.026;2023-04-01T04:46:46;740.67;;;407.87;;
29280;SDS011;25048;49.590;11.026;2023-04-01T04:49:13;739.03;;;412.57;;
29280;SDS011;25048;49.590;11.026;2023-04-01T04:51:41;730.83;;;392.70;;
29280;SDS011;25048;49.590;11.026;2023-04-01T04:54:08;734.80;;;400.53;;
29280;SDS011;25048;49.590;11.026;2023-04-01T04:56:36;738.73;;;410.83;;
29280;SDS011;25048;49.590;11.026;2023-04-01T04:59:03;736.03;;;398.03;;
29280;SDS011;25048;49.590;11.026;2023-04-01T05:01:32;738.97;;;402.73;;
29280;SDS011;25048;49.590;11.026;2023-04-01T05:03:59;730.90;;;381.87;;
29280;SDS011;25048;49.590;11.026;2023-04-01T05:06:27;729.83;;;388.90;;
29280;SDS011;25048;49.590;11.026;2023-04-01T05:08:55;732.37;;;384.20;;
29280;SDS011;25048;49.590;11.026;2023-04-01T05:11:23;736.10;;;393.97;;
29280;SDS011;25048;49.590;11.026;2023-04-01T05:13:51;735.47;;;395.00;;
29280;SDS011;25048;49.590;11.026;2023-04-01T05:16:19;735.13;;;398.03;;
29280;SDS011;25048;49.590;11.026;2023-04-01T05:18:47;737.67;;;396.87;;
29280;SDS011;25048;49.590;11.026;2023-04-01T05:21:15;737.53;;;394.23;;
29280;SDS011;25048;49.590;11.026;2023-04-01T05:23:42;730.13;;;383.00;;
29280;SDS011;25048;49.590;11.026;2023-04-01T05:26:11;736.13;;;405.27;;
29280;SDS011;25048;49.590;11.026;2023-04-01T05:28:40;739.17;;;402.47;;
29280;SDS011;25048;49.590;11.026;2023-04-01T05:31:09;728.37;;;380.77;;
29280;SDS011;25048;49.590;11.026;2023-04-01T05:33:36;735.37;;;391.90;;
29280;SDS011;25048;49.590;11.026;2023-04-01T05:38:40;733.50;;;393.60;;
29280;SDS011;25048;49.590;11.026;2023-04-01T05:41:08;733.07;;;398.40;;
29280;SDS011;25048;49.590;11.026;2023-04-01T05:43:36;734.33;;;400.00;;
29280;SDS011;25048;49.590;11.026;2023-04-01T05:46:05;735.20;;;395.13;;
29280;SDS011;25048;49.590;11.026;2023-04-01T05:48:33;736.67;;;397.37;;
29280;SDS011;25048;49.590;11.026;2023-04-01T05:51:03;739.23;;;400.80;;
29280;SDS011;25048;49.590;11.026;2023-04-01T05:53:31;736.93;;;400.53;;
29280;SDS011;25048;49.590;11.026;2023-04-01T05:56:03;735.20;;;396.93;;
29280;SDS011;25048;49.590;11.026;2023-04-01T05:58:31;735.30;;;400.47;;
29280;SDS011;25048;49.590;11.026;2023-04-01T06:01:05;736.67;;;406.30;;
29280;SDS011;25048;49.590;11.026;2023-04-01T06:03:34;735.80;;;401.23;;
29280;SDS011;25048;49.590;11.026;2023-04-01T06:06:02;738.03;;;406.20;;
29280;SDS011;25048;49.590;11.026;2023-04-01T06:08:31;738.43;;;405.87;;
29280;SDS011;25048;49.590;11.026;2023-04-01T06:16:42;727.77;;;385.27;;
29280;SDS011;25048;49.590;11.026;2023-04-01T06:22:00;731.63;;;395.50;;
29280;SDS011;25048;49.590;11.026;2023-04-01T06:30:17;733.93;;;403.33;;
29280;SDS011;25048;49.590;11.026;2023-04-01T06:32:56;740.77;;;418.77;;
29280;SDS011;25048;49.590;11.026;2023-04-01T06:35:38;737.60;;;413.70;;
29280;SDS011;25048;49.590;11.026;2023-04-01T06:40:57;742.67;;;428.13;;
29280;SDS011;25048;49.590;11.026;2023-04-01T06:51:59;746.93;;;443.17;;
29280;SDS011;25048;49.590;11.026;2023-04-01T06:54:36;748.93;;;445.17;;
29280;SDS011;25048;49.590;11.026;2023-04-01T06:57:47;746.93;;;441.47;;
29280;SDS011;25048;49.590;11.026;2023-04-01T06:59:54;738.90;;;428.43;;
29280;SDS011;25048;49.590;11.026;2023-04-01T07:02:36;751.93;;;453.23;;
29280;SDS011;25048;49.590;11.026;2023-04-01T07:05:04;747.20;;;441.17;;
29280;SDS011;25048;49.590;11.026;2023-04-01T07:07:54;757.00;;;467.47;;
29280;SDS011;25048;49.590;11.026;2023-04-01T07:10:25;750.50;;;454.97;;
29280;SDS011;25048;49.590;11.026;2023-04-01T07:12:54;754.97;;;462.00;;
29280;SDS011;25048;49.590;11.026;2023-04-01T07:18:16;754.50;;;464.63;;
29280;SDS011;25048;49.590;11.026;2023-04-01T07:20:46;755.17;;;471.33;;
29280;SDS011;25048;49.590;11.026;2023-04-01T07:23:16;754.93;;;462.10;;
29280;SDS011;25048;49.590;11.026;2023-04-01T07:25:51;757.00;;;476.90;;
29280;SDS011;25048;49.590;11.026;2023-04-01T07:28:22;746.77;;;459.90;;
29280;SDS011;25048;49.590;11.026;2023-04-01T07:30:52;758.23;;;484.87;;
29280;SDS011;25048;49.590;11.026;2023-04-01T07:33:23;764.63;;;495.47;;
29280;SDS011;25048;49.590;11.026;2023-04-01T07:35:58;765.00;;;500.80;;
29280;SDS011;25048;49.590;11.026;2023-04-01T07:41:39;763.30;;;492.90;;
29280;SDS011;25048;49.590;11.026;2023-04-01T07:44:16;760.97;;;499.37;;
29280;SDS011;25048;49.590;11.026;2023-04-01T07:47:06;768.90;;;513.73;;
29280;SDS011;25048;49.590;11.026;2023-04-01T07:49:40;769.50;;;509.73;;
29280;SDS011;25048;49.590;11.026;2023-04-01T07:52:31;767.67;;;512.73;;
29280;SDS011;25048;49.590;11.026;2023-04-01T07:55:04;770.40;;;517.70;;
29280;SDS011;25048;49.590;11.026;2023-04-01T07:57:36;764.80;;;513.60;;
29280;SDS011;25048;49.590;11.026;2023-04-01T08:03:33;760.80;;;502.30;;
29280;SDS011;25048;49.590;11.026;2023-04-01T08:05:27;764.40;;;507.87;;
29280;SDS011;25048;49.590;11.026;2023-04-01T08:16:20;771.87;;;530.00;;
29280;SDS011;25048;49.590;11.026;2023-04-01T08:21:50;762.53;;;515.37;;
29280;SDS011;25048;49.590;11.026;2023-04-01T08:26:56;766.63;;;512.80;;
29280;SDS011;25048;49.590;11.026;2023-04-01T08:29:33;765.87;;;510.73;;
29280;SDS011;25048;49.590;11.026;2023-04-01T08:32:03;755.87;;;491.00;;
29280;SDS011;25048;49.590;11.026;2023-04-01T08:34:33;764.73;;;513.43;;
29280;SDS011;25048;49.590;11.026;2023-04-01T08:37:08;753.80;;;490.90;;
29280;SDS011;25048;49.590;11.026;2023-04-01T08:39:37;766.03;;;510.97;;
29280;SDS011;25048;49.590;11.026;2023-04-01T08:42:17;760.67;;;509.67;;
29280;SDS011;25048;49.590;11.026;2023-04-01T08:45:05;763.20;;;506.37;;
29280;SDS011;25048;49.590;11.026;2023-04-01T08:53:30;764.23;;;495.17;;
29280;SDS011;25048;49.590;11.026;2023-04-01T09:01:39;760.33;;;492.70;;
29280;SDS011;25048;49.590;11.026;2023-04-01T09:09:37;757.13;;;485.30;;
29280;SDS011;25048;49.590;11.026;2023-04-01T09:15:13;760.93;;;491.00;;
29280;SDS011;25048;49.590;11.026;2023-04-01T09:23:23;767.30;;;502.80;;
29280;SDS011;25048;49.590;11.026;2023-04-01T09:28:42;763.07;;;497.47;;
29280;SDS011;25048;49.590;11.026;2023-04-01T09:34:05;756.80;;;494.67;;
29280;SDS011;25048;49.590;11.026;2023-04-01T09:36:38;757.27;;;487.03;;
29280;SDS011;25048;49.590;11.026;2023-04-01T09:44:58;755.80;;;487.20;;
29280;SDS011;25048;49.590;11.026;2023-04-01T09:50:27;759.90;;;494.67;;
29280;SDS011;25048;49.590;11.026;2023-04-01T09:52:57;752.97;;;475.43;;
29280;SDS011;25048;49.590;11.026;2023-04-01T09:55:50;757.37;;;491.53;;
29280;SDS011;25048;49.590;11.026;2023-04-01T09:58:32;753.10;;;474.57;;
29280;SDS011;25048;49.590;11.026;2023-04-01T10:01:09;752.07;;;472.00;;
29280;SDS011;25048;49.590;11.026;2023-04-01T10:09:45;749.40;;;455.73;;
29280;SDS011;25048;49.590;11.026;2023-04-01T10:18:33;746.47;;;455.47;;
29280;SDS011;25048;49.590;11.026;2023-04-01T10:23:59;740.80;;;432.93;;
29280;SDS011;25048;49.590;11.026;2023-04-01T10:26:49;741.50;;;436.47;;
29280;SDS011;25048;49.590;11.026;2023-04-01T10:29:36;746.50;;;446.13;;
29280;SDS011;25048;49.590;11.026;2023-04-01T10:34:50;749.43;;;461.37;;
29280;SDS011;25048;49.590;11.026;2023-04-01T11:08:24;742.13;;;430.53;;
29280;SDS011;25048;49.590;11.026;2023-04-01T11:11:01;739.03;;;433.47;;
29280;SDS011;25048;49.590;11.026;2023-04-01T11:19:37;735.10;;;424.33;;
29280;SDS011;25048;49.590;11.026;2023-04-01T11:22:09;738.43;;;430.40;;
29280;SDS011;25048;49.590;11.026;2023-04-01T11:24:44;739.83;;;438.50;;
29280;SDS011;25048;49.590;11.026;2023-04-01T11:29:57;733.47;;;424.63;;
29280;SDS011;25048;49.590;11.026;2023-04-01T11:32:39;739.03;;;429.97;;
29280;SDS011;25048;49.590;11.026;2023-04-01T11:35:27;739.53;;;431.03;;
29280;SDS011;25048;49.590;11.026;2023-04-01T11:41:02;738.83;;;435.67;;
29280;SDS011;25048;49.590;11.026;2023-04-01T11:43:59;737.53;;;436.80;;
29280;SDS011;25048;49.590;11.026;2023-04-01T11:46:35;733.03;;;423.57;;
29280;SDS011;25048;49.590;11.026;2023-04-01T11:51:58;737.33;;;434.60;;
29280;SDS011;25048;49.590;11.026;2023-04-01T11:57:12;730.40;;;424.83;;
29280;SDS011;25048;49.590;11.026;2023-04-01T12:10:19;734.67;;;429.97;;
29280;SDS011;25048;49.590;11.026;2023-04-01T12:16:37;737.80;;;432.47;;
29280;SDS011;25048;49.590;11.026;2023-04-01T12:18:35;737.23;;;439.47;;
29280;SDS011;25048;49.590;11.026;2023-04-01T12:32:17;731.63;;;423.87;;
29280;SDS011;25048;49.590;11.026;2023-04-01T12:35:02;735.70;;;440.47;;
29280;SDS011;25048;49.590;11.026;2023-04-01T12:48:52;731.17;;;422.43;;
29280;SDS011;25048;49.590;11.026;2023-04-01T12:54:12;726.07;;;416.10;;
29280;SDS011;25048;49.590;11.026;2023-04-01T12:57:21;731.20;;;421.33;;
29280;SDS011;25048;49.590;11.026;2023-04-01T13:02:37;716.93;;;388.23;;
29280;SDS011;25048;49.590;11.026;2023-04-01T13:07:42;725.17;;;402.60;;
29280;SDS011;25048;49.590;11.026;2023-04-01T13:10:20;726.87;;;412.83;;
29280;SDS011;25048;49.590;11.026;2023-04-01T13:12:53;726.97;;;409.57;;
29280;SDS011;25048;49.590;11.026;2023-04-01T13:15:47;721.53;;;401.47;;
29280;SDS011;25048;49.590;11.026;2023-04-01T13:18:25;721.40;;;401.37;;
29280;SDS011;25048;49.590;11.026;2023-04-01T13:21:06;723.97;;;400.17;;
29280;SDS011;25048;49.590;11.026;2023-04-01T13:26:18;709.90;;;380.00;;
29280;SDS011;25048;49.590;11.026;2023-04-01T13:29:16;710.57;;;383.87;;
29280;SDS011;25048;49.590;11.026;2023-04-01T13:39:56;677.93;;;339.93;;
29280;SDS011;25048;49.590;11.026;2023-04-01T13:42:27;678.43;;;325.13;;
29280;SDS011;25048;49.590;11.026;2023-04-01T13:45:00;716.20;;;394.43;;
29280;SDS011;25048;49.590;11.026;2023-04-01T13:47:36;690.53;;;353.73;;
29280;SDS011;25048;49.590;11.026;2023-04-01T13:50:08;665.60;;;311.33;;
29280;SDS011;25048;49.590;11.026;2023-04-01T13:52:44;676.17;;;333.23;;
29280;SDS011;25048;49.590;11.026;2023-04-01T13:55:30;693.43;;;354.77;;
29280;SDS011;25048;49.590;11.026;2023-04-01T14:01:05;681.07;;;343.50;;
29280;SDS011;25048;49.590;11.026;2023-04-01T14:03:41;681.33;;;339.53;;
29280;SDS011;25048;49.590;11.026;2023-04-01T14:06:19;686.40;;;358.27;;
29280;SDS011;25048;49.590;11.026;2023-04-01T14:12:26;726.43;;;408.83;;
29280;SDS011;25048;49.590;11.026;2023-04-01T14:14:17;733.90;;;421.17;;
29280;SDS011;25048;49.590;11.026;2023-04-01T14:19:35;730.40;;;415.67;;
29280;SDS011;25048;49.590;11.026;2023-04-01T14:27:53;734.83;;;425.47;;
29280;SDS011;25048;49.590;11.026;2023-04-01T14:42:06;736.50;;;434.77;;
29280;SDS011;25048;49.590;11.026;2023-04-01T14:50:15;739.93;;;438.67;;
29280;SDS011;25048;49.590;11.026;2023-04-01T14:52:46;737.67;;;429.03;;
29280;SDS011;25048;49.590;11.026;2023-04-01T14:58:10;733.60;;;424.20;;
29280;SDS011;25048;49.590;11.026;2023-04-01T15:03:15;729.27;;;407.40;;
29280;SDS011;25048;49.590;11.026;2023-04-01T15:08:16;727.70;;;406.60;;
29280;SDS011;25048;49.590;11.026;2023-04-01T15:11:15;731.73;;;416.03;;
29280;SDS011;25048;49.590;11.026;2023-04-01T15:13:53;732.10;;;417.73;;
29280;SDS011;25048;49.590;11.026;2023-04-01T15:16:28;729.17;;;411.53;;
29280;SDS011;25048;49.590;11.026;2023-04-01T15:19:12;724.00;;;396.23;;
29280;SDS011;25048;49.590;11.026;2023-04-01T15:22:01;733.47;;;419.97;;
29280;SDS011;25048;49.590;11.026;2023-04-01T15:24:46;732.10;;;418.10;;
29280;SDS011;25048;49.590;11.026;2023-04-01T15:27:34;728.07;;;400.30;;
29280;SDS011;25048;49.590;11.026;2023-04-01T15:38:51;730.97;;;411.67;;
29280;SDS011;25048;49.590;11.026;2023-04-01T15:44:03;721.67;;;393.73;;
29280;SDS011;25048;49.590;11.026;2023-04-01T15:46:44;732.30;;;415.83;;
29280;SDS011;25048;49.590;11.026;2023-04-01T15:49:35;723.20;;;397.97;;
29280;SDS011;25048;49.590;11.026;2023-04-01T15:52:10;725.47;;;405.20;;
29280;SDS011;25048;49.590;11.026;2023-04-01T15:57:47;729.87;;;415.30;;
29280;SDS011;25048;49.590;11.026;2023-04-01T16:03:18;726.17;;;405.23;;
29280;SDS011;25048;49.590;11.026;2023-04-01T16:11:45;715.73;;;380.13;;
29280;SDS011;25048;49.590;11.026;2023-04-01T16:14:16;721.73;;;394.20;;
29280;SDS011;25048;49.590;11.026;2023-04-01T16:17:00;721.40;;;392.57;;
29280;SDS011;25048;49.590;11.026;2023-04-01T16:22:17;723.37;;;395.67;;
29280;SDS011;25048;49.590;11.026;2023-04-01T16:24:46;724.30;;;395.70;;
29280;SDS011;25048;49.590;11.026;2023-04-01T16:27:24;721.70;;;391.27;;
29280;SDS011;25048;49.590;11.026;2023-04-01T16:29:56;718.97;;;387.87;;
29280;SDS011;25048;49.590;11.026;2023-04-01T16:32:35;719.13;;;382.87;;
29280;SDS011;25048;49.590;11.026;2023-04-01T16:38:15;711.63;;;367.17;;
29280;SDS011;25048;49.590;11.026;2023-04-01T16:43:45;719.60;;;383.77;;
29280;SDS011;25048;49.590;11.026;2023-04-01T16:46:20;707.53;;;358.43;;
29280;SDS011;25048;49.590;11.026;2023-04-01T16:49:00;717.37;;;382.63;;
29280;SDS011;25048;49.590;11.026;2023-04-01T16:51:52;709.17;;;364.87;;
29280;SDS011;25048;49.590;11.026;2023-04-01T16:57:10;716.37;;;376.13;;
29280;SDS011;25048;49.590;11.026;2023-04-01T16:59:37;710.93;;;367.97;;
29280;SDS011;25048;49.590;11.026;2023-04-01T17:02:16;702.53;;;358.50;;
29280;SDS011;25048;49.590;11.026;2023-04-01T17:07:40;709.87;;;371.17;;
29280;SDS011;25048;49.590;11.026;2023-04-01T17:15:53;714.27;;;364.63;;
29280;SDS011;25048;49.590;11.026;2023-04-01T17:32:40;720.67;;;381.13;;
29280;SDS011;25048;49.590;11.026;2023-04-01T17:35:37;708.70;;;353.37;;
29280;SDS011;25048;49.590;11.026;2023-04-01T17:41:02;728.03;;;392.23;;
29280;SDS011;25048;49.590;11.026;2023-04-01T17:43:35;719.60;;;377.47;;
29280;SDS011;25048;49.590;11.026;2023-04-01T17:51:40;724.57;;;383.90;;
29280;SDS011;25048;49.590;11.026;2023-04-01T17:54:21;723.40;;;381.20;;
29280;SDS011;25048;49.590;11.026;2023-04-01T17:59:39;726.67;;;385.40;;
29280;SDS011;25048;49.590;11.026;2023-04-01T18:02:31;727.27;;;387.47;;
29280;SDS011;25048;49.590;11.026;2023-04-01T18:05:12;717.83;;;376.13;;
29280;SDS011;25048;49.590;11.026;2023-04-01T18:10:23;726.17;;;384.20;;
29280;SDS011;25048;49.590;11.026;2023-04-01T18:21:10;728.87;;;387.03;;
29280;SDS011;25048;49.590;11.026;2023-04-01T18:24:02;730.50;;;393.23;;
29280;SDS011;25048;49.590;11.026;2023-04-01T18:26:47;724.33;;;380.37;;
29280;SDS011;25048;49.590;11.026;2023-04-01T18:29:19;720.63;;;373.80;;
29280;SDS011;25048;49.590;11.026;2023-04-01T18:31:45;730.07;;;393.60;;
29280;SDS011;25048;49.590;11.026;2023-04-01T18:40:10;722.13;;;374.47;;
29280;SDS011;25048;49.590;11.026;2023-04-01T18:43:22;718.93;;;362.77;;
29280;SDS011;25048;49.590;11.026;2023-04-01T18:50:51;716.50;;;362.27;;
29280;SDS011;25048;49.590;11.026;2023-04-01T18:56:09;727.70;;;391.93;;
29280;SDS011;25048;49.590;11.026;2023-04-01T18:58:46;729.77;;;393.03;;
29280;SDS011;25048;49.590;11.026;2023-04-01T19:01:48;722.37;;;372.97;;
29280;SDS011;25048;49.590;11.026;2023-04-01T19:07:32;730.93;;;397.53;;
29280;SDS011;25048;49.590;11.026;2023-04-01T19:10:26;723.80;;;378.43;;
29280;SDS011;25048;49.590;11.026;2023-04-01T19:13:11;728.33;;;391.37;;
29280;SDS011;25048;49.590;11.026;2023-04-01T19:15:52;727.37;;;393.67;;
29280;SDS011;25048;49.590;11.026;2023-04-01T19:18:37;721.53;;;374.53;;
29280;SDS011;25048;49.590;11.026;2023-04-01T19:21:10;736.93;;;406.87;;
29280;SDS011;25048;49.590;11.026;2023-04-01T19:26:46;726.17;;;392.73;;
29280;SDS011;25048;49.590;11.026;2023-04-01T19:29:26;731.17;;;398.90;;
29280;SDS011;25048;49.590;11.026;2023-04-01T19:31:58;728.33;;;397.00;;
29280;SDS011;25048;49.590;11.026;2023-04-01T19:37:21;731.67;;;400.00;;
29280;SDS011;25048;49.590;11.026;2023-04-01T19:42:51;733.40;;;407.40;;
29280;SDS011;25048;49.590;11.026;2023-04-01T19:48:00;732.63;;;398.77;;
29280;SDS011;25048;49.590;11.026;2023-04-01T19:53:47;728.10;;;398.37;;
29280;SDS011;25048;49.590;11.026;2023-04-01T19:55:50;725.97;;;389.47;;
29280;SDS011;25048;49.590;11.026;2023-04-01T19:58:24;727.07;;;386.00;;
29280;SDS011;25048;49.590;11.026;2023-04-01T20:01:03;730.07;;;400.53;;
29280;SDS011;25048;49.590;11.026;2023-04-01T20:03:34;728.97;;;391.07;;
29280;SDS011;25048;49.590;11.026;2023-04-01T20:06:50;729.63;;;401.63;;
29280;SDS011;25048;49.590;11.026;2023-04-01T20:14:28;727.73;;;394.47;;
29280;SDS011;25048;49.590;11.026;2023-04-01T20:17:15;725.83;;;393.60;;
29280;SDS011;25048;49.590;11.026;2023-04-01T20:20:45;721.00;;;381.50;;
29280;SDS011;25048;49.590;11.026;2023-04-01T20:25:30;726.47;;;394.67;;
29280;SDS011;25048;49.590;11.026;2023-04-01T20:28:00;721.37;;;385.40;;
29280;SDS011;25048;49.590;11.026;2023-04-01T20:44:46;725.50;;;393.47;;
29280;SDS011;25048;49.590;11.026;2023-04-01T20:46:57;725.63;;;389.83;;
29280;SDS011;25048;49.590;11.026;2023-04-01T20:52:25;713.87;;;369.00;;